»·PEaware :: N379BN KLAX-KSNA

N379BN :: KLAX-KSNA

FLIGHT INFORMATION

Flight Status: Arrived
Operator: Privately registered:
United States
More flights under this callsign
Pilot: Brian N. (26816)
Aircraft: CESSNA 182 SKYLANE
(C182)
More flights by this aircraft type
Origin: KLAX Los Angeles Intl
United States
Destination: KSNA John Wayne-Orange Co
United States
More flights between these airports :: More routes between these airports
Route: SLI8 SLI
File this flight plan on PilotEdge
Remarks: I-6
Altitude:
(Current/Filed)
4,000ft
Speed:
(Current/Filed)
170kts
Departed: 07-Nov-19 11:02 AM
Arrived: 07-Nov-19 11:30 AM
Distance/Time
Traveled:
1nm/0:28
Distance/Time
To Go:
Arrived

Flight Plot

Page will automatically refresh every two minutes.

Flight plan parsing failed; only flown route is shown


Map Options




Map Legend


Flown Route
Filed Route
Departure Airport
Arrival Airport
Navaid (VOR, NDB)
Fix

Horizontal Profiles

Position Reports

Time Latitude Longitude Heading Altitude Ground
Speed
07-Nov-19 10:45 33.932646 -118.399772 82 130ft 0kts
07-Nov-19 10:46 33.932646 -118.399772 82 130ft 0kts
07-Nov-19 10:47 33.932646 -118.399772 82 130ft 0kts
07-Nov-19 10:48 33.932646 -118.399771 82 130ft 0kts
07-Nov-19 10:49 33.932647 -118.399770 82 130ft 0kts
07-Nov-19 10:50 33.932647 -118.399769 82 130ft 0kts
07-Nov-19 10:51 33.932647 -118.399768 82 130ft 0kts
07-Nov-19 10:52 33.932647 -118.399766 82 130ft 0kts
07-Nov-19 10:53 33.932647 -118.399764 82 130ft 0kts
07-Nov-19 10:54 33.932647 -118.399763 82 130ft 0kts
07-Nov-19 10:55 33.932648 -118.399761 82 130ft 0kts
07-Nov-19 10:56 33.932648 -118.399759 82 130ft 0kts
07-Nov-19 10:57 33.934658 -118.397432 82 130ft 20kts
07-Nov-19 10:58 33.935609 -118.388340 82 130ft 27kts
07-Nov-19 10:59 33.936410 -118.382950 16 130ft 1kts
07-Nov-19 11:00 33.936423 -118.382945 16 130ft 0kts
07-Nov-19 11:01 33.936403 -118.391968 264 250ft 73kts
07-Nov-19 11:02 33.934388 -118.417612 263 1252ft 85kts
07-Nov-19 11:03 33.919967 -118.440467 172 2281ft 117kts
07-Nov-19 11:04 33.887326 -118.435727 171 3255ft 117kts
07-Nov-19 11:05 33.856713 -118.424572 142 3999ft 129kts
07-Nov-19 11:06 33.824060 -118.395830 142 4001ft 153kts
07-Nov-19 11:07 33.787399 -118.363196 141 3984ft 168kts
07-Nov-19 11:08 33.757967 -118.336988 141 3991ft 162kts
07-Nov-19 11:09 33.728750 -118.300771 91 4011ft 152kts
07-Nov-19 11:10 33.726982 -118.246093 91 3987ft 163kts
07-Nov-19 11:11 33.725260 -118.193678 91 4000ft 153kts
07-Nov-19 11:12 33.723583 -118.142780 92 3997ft 152kts
07-Nov-19 11:13 33.722218 -118.101479 91 4003ft 152kts
07-Nov-19 11:14 33.720521 -118.050294 91 4010ft 162kts
07-Nov-19 11:15 33.718706 -117.994701 91 3978ft 162kts
07-Nov-19 11:16 33.717362 -117.939378 80 3981ft 162kts
07-Nov-19 11:17 33.748996 -117.909416 31 3998ft 159kts
07-Nov-19 11:19 33.788091 -117.881917 32 3991ft 160kts
07-Nov-19 11:20 33.827851 -117.853929 32 3980ft 163kts
07-Nov-19 11:21 33.864998 -117.827677 32 3999ft 155kts
07-Nov-19 11:22 33.898854 -117.796108 83 3990ft 157kts
07-Nov-19 11:23 33.871713 -117.759331 183 3642ft 155kts
07-Nov-19 11:24 33.835792 -117.763157 203 2710ft 133kts
07-Nov-19 11:25 33.801322 -117.785976 208 2751ft 155kts
07-Nov-19 11:26 33.766197 -117.809118 208 1990ft 131kts
07-Nov-19 11:27 33.732663 -117.831833 208 1196ft 139kts
07-Nov-19 11:28 33.702940 -117.851540 208 589ft 103kts
07-Nov-19 11:29 33.681776 -117.865029 207 92ft 75kts
07-Nov-19 11:30 33.674406 -117.868488 161 59ft 0kts
07-Nov-19 11:31 33.674405 -117.868488 161 59ft 0kts
07-Nov-19 11:32 33.673980 -117.867771 115 59ft 18kts
07-Nov-19 11:33 33.672069 -117.866926 210 59ft 0kts
07-Nov-19 11:34 33.672069 -117.866926 210 59ft 0kts
07-Nov-19 11:35 33.672069 -117.866926 210 59ft 0kts
07-Nov-19 11:37 33.933063 -118.397211 323 129ft 0kts
07-Nov-19 11:37 33.933063 -118.397211 323 130ft 0kts
07-Nov-19 11:39 33.933063 -118.397211 323 130ft 0kts
07-Nov-19 11:40 33.933063 -118.397211 323 130ft 0kts
07-Nov-19 11:40 33.933063 -118.397211 323 130ft 0kts
07-Nov-19 11:41 33.933063 -118.397211 323 130ft 0kts
07-Nov-19 11:43 33.933063 -118.397211 323 130ft 0kts
07-Nov-19 11:43 33.933063 -118.397211 323 130ft 0kts
07-Nov-19 11:44 33.933063 -118.397211 323 130ft 0kts

Navigation Log

Ident Type
Flight plan parsing failed, navigation log unavailable